If you wish to contribute or participate in the discussions about articles you are invited to join SKYbrary as a registered user

 Actions

Gran Canaria

From SKYbrary Wiki

GCLP /
Revision as of 17:01, 22 March 2010 by Editor1 (talk | contribs) (Created page with '{{Airport |Airport_Name=Gran Canaria |ICAO_Region=EUR |ICAO_Territory=GC |Location=Gran Canaria, Canary Islands, Spain |Coordinates= 27° 55′ 91″ N, 15° 23′ 20″ W }} __N…')
(diff) ← Older revision | Latest revision (diff) | Newer revision → (diff)
Airport
ICAO: GCLP
Summary
Name Gran Canaria
Region Europe
Territory Canary Islands ES.gif
Location Gran Canaria, Canary Islands, Spain
Serving
Coordinates 27° 56' 31.00" N, 15° 23' 20.00" W
Runways
Designator Length Width Surface ROPS
03L/21R 3100 m10,170.604 ft <br /> 45 m147.638 ft <br /> ASP yes/yes
03R/21L 3100 m10,170.604 ft <br /> 45 m147.638 ft <br /> ASP yes/yes


METAR
Observation GCLP 240030Z 36015KT 9999 FEW025 SCT040 20/14 Q1019 NOSIG
Station Gran Canaria - Canary Islands
Date/Time 24 June 2021 00:30:00
Wind direction 360°
Wind speed 15 kts
Lowest cloud amount few clouds
Temperature 20°C
Dew point 14°C
Humidity 68%
QNH 1019 hPa
Weather condition n/a


Gran Canaria Airport

ICAO: GCLP IATA: LPA

Description

International airport serving...

Climatology

Maps

Terrain

Loading map...

Airport Layout

Loading map...

Accidents & Serious Incidents at or in vicinity of GCLP